Strona główna
METAR-TAF:

METAR-TAF

Lotnisko :

Port lotniczy Manchester

Manchester, Anglia

Szerokość geograficzna: 53-21N, Długość geograficzna: 002-17W, wysokość: 69 m

Aktualna obserwacja pogody

Raport powstał 37 minut temu, godzina 16:50 UTC
Wiatr 2 kt od południowy zachód
Temperatura 5°C
Wilgotność 93%
Ciśnienie 1015 hPa
Widzialność 10 km lub więcej
Mało chmury na wysokości 2300 ft

METAR: EGCC 251650Z AUTO 22002KT 9999 FEW023 05/04 Q1015 NOSIG

czas: 17:27 (17:27 UTC)

Prognoza

Raport powstał 6 godziny i 28 minut temu, godzina 10:59 UTC
Prognoza ważna od 25 godzina 12 UTC do 26 godzina 18 UTC
Wiatr 5 kt od zachód
Widzialność 10 km lub więcej
Mało chmury na wysokości 1500 ft
Rozproszone chmury na wysokości 4500 ft
Przejściowo
od 25 godzina 20 UTC do 26 godzina 10 UTC
Widzialność: 6000 m
Prawdopodobieństwo 30% :
Przejściowo
od 25 godzina 21 UTC do 26 godzina 09 UTC
Widzialność: 3000 m
zamglenie

TAF: EGCC 251059Z 2512/2618 26005KT 9999 FEW015 SCT045 TEMPO 2520/2610 6000 PROB30 TEMPO 2521/2609 3000 BR

Obserwacja i prognoza pogody dla ponad 4000 lotnisk (raport METAR i TAF).

Dostępne stacje oznaczono żółtymi i czerwonymi punktami na mapie.

Najedź kursorem aby zobaczyć nazwę stacji.

Kliknij aby zobaczyć obserwacje i prognozy pogody.

Aby zmienić mapę: kliknij na zielony przycisk z czarnym krzyżykiem, aby powiększyć; na zielony przycisk z myślnikiem, aby pomniejszyć; na zielone strzałki, aby przejść do map sąsiednich.


METAR-TAF: